Time;durP1;ratioP1;P1;durP2;ratioP2;P2;SDS_P1;SDS_P2;PMS_P1;PMS_P2;Temp;Humidity;BMP_temperature;BMP_pressure;BME280_temperature;BME280_humidity;BME280_pressure;Samples;Min_cycle;Max_cycle;Signal;HPM_P1;HPM_P2
2021/11/07 00:00:35;;;;;;;12.43;4.90;;;9.80;99.90;;;10.36;75.37;101317.63;5014117;28;20194;-78
2021/11/07 00:03:07;;;;;;;12.05;5.00;;;9.80;99.90;;;10.37;75.45;101312.34;5017238;28;20907;-78
2021/11/07 00:05:38;;;;;;;11.27;4.78;;;9.70;99.90;;;10.40;75.41;101290.47;5032163;28;20317;-78
2021/11/07 00:08:27;;;;;;;11.02;4.80;;;9.70;99.90;;;10.40;75.06;101290.47;5015469;28;20252;-78
2021/11/07 00:10:56;;;;;;;10.32;4.22;;;9.70;99.90;;;10.37;75.38;101280.06;5001439;28;20591;-78
2021/11/07 00:13:25;;;;;;;12.98;5.10;;;9.80;99.90;;;10.31;75.24;101275.03;5007237;28;20601;-78
2021/11/07 00:15:55;;;;;;;11.88;5.18;;;9.70;99.90;;;10.28;75.23;101281.22;5003668;28;20590;-78
2021/11/07 00:18:25;;;;;;;11.43;4.53;;;9.70;99.90;;;10.28;75.59;101265.53;4996035;28;20218;-78
2021/11/07 00:20:56;;;;;;;11.38;4.93;;;9.70;99.90;;;10.25;75.56;101262.97;5011778;28;20603;-78
2021/11/07 00:23:41;;;;;;;14.40;6.10;;;9.60;99.90;;;10.21;75.54;101265.72;4995670;28;20191;-78
2021/11/07 00:26:14;;;;;;;12.68;4.80;;;9.60;99.90;;;10.17;75.55;101251.84;5011388;28;20227;-78
2021/11/07 00:28:47;;;;;;;15.57;5.63;;;9.60;99.90;;;10.16;75.57;101239.69;4996142;28;20230;-78
2021/11/07 00:31:22;;;;;;;13.07;5.10;;;9.60;99.90;;;10.16;75.55;101244.06;4997462;28;20242;-78
2021/11/07 00:36:35;;;;;;;14.60;4.82;;;9.50;99.90;;;10.18;75.71;101234.41;5012381;28;20302;-78
2021/11/07 00:39:11;;;;;;;11.05;4.65;;;9.60;99.90;;;10.17;75.87;101232.69;4996163;28;20230;-78
2021/11/07 00:41:45;;;;;;;12.98;4.95;;;9.60;99.90;;;10.20;75.83;101219.56;4996288;28;20747;-78
2021/11/07 00:44:17;;;;;;;13.38;5.20;;;9.60;99.90;;;10.23;75.95;101216.84;4995198;28;20240;-77
2021/11/07 00:46:49;;;;;;;12.75;5.03;;;9.60;99.90;;;10.22;75.54;101197.66;4995536;28;20309;-78
2021/11/07 00:49:21;;;;;;;12.20;4.53;;;9.60;99.90;;;10.21;75.80;101195.09;5032046;28;20195;-78
2021/11/07 00:52:00;;;;;;;13.23;5.00;;;9.50;99.90;;;10.18;75.79;101180.34;5018707;28;20191;-78
2021/11/07 00:54:30;;;;;;;12.55;5.00;;;9.50;99.90;;;10.16;75.95;101170.84;5035327;28;20207;-78
2021/11/07 00:56:58;;;;;;;11.55;4.72;;;9.50;99.90;;;10.12;75.87;101167.44;5027606;28;20246;-79
2021/11/07 00:59:37;;;;;;;13.65;4.85;;;9.40;99.90;;;10.06;75.93;101154.53;5052175;28;20170;-78
2021/11/07 01:02:18;;;;;;;13.20;4.95;;;9.40;99.90;;;10.03;76.13;101155.44;5039545;28;20174;-79
2021/11/07 01:04:47;;;;;;;14.98;5.10;;;9.40;99.90;;;10.00;76.15;101166.00;5039425;28;20224;-81
2021/11/07 01:07:16;;;;;;;11.27;4.80;;;9.30;99.90;;;9.99;76.52;101166.06;5055549;28;20220;-79
2021/11/07 01:09:43;;;;;;;13.25;4.90;;;9.30;99.90;;;9.99;76.45;101158.22;5039232;28;20174;-78
2021/11/07 01:12:12;;;;;;;11.95;5.00;;;9.30;99.90;;;9.96;76.31;101133.00;5038705;28;20182;-79
2021/11/07 01:14:40;;;;;;;11.35;4.40;;;9.30;99.90;;;9.91;76.32;101145.34;5055557;28;20201;-79
2021/11/07 01:17:08;;;;;;;13.07;4.72;;;9.30;99.90;;;9.95;76.37;101156.56;5055373;28;20213;-79
2021/11/07 01:19:36;;;;;;;12.35;4.47;;;9.30;99.90;;;9.96;76.64;101147.84;5037973;28;20187;-83
2021/11/07 01:22:08;;;;;;;12.05;5.03;;;9.20;99.90;;;9.95;76.63;101141.75;5038261;28;20170;-79
2021/11/07 01:24:40;;;;;;;11.93;4.95;;;9.30;99.90;;;9.98;76.49;101136.44;5026810;28;20221;-79
2021/11/07 01:27:14;;;;;;;10.30;4.32;;;9.30;99.90;;;9.98;76.38;101130.34;5018924;28;20222;-79
2021/11/07 01:29:46;;;;;;;11.80;4.63;;;9.30;99.90;;;9.96;76.43;101122.53;5019421;28;20191;-79
2021/11/07 01:32:15;;;;;;;11.90;4.78;;;9.30;99.90;;;9.95;76.58;101107.75;5019401;28;20179;-79
2021/11/07 01:34:53;;;;;;;12.32;5.07;;;9.30;99.90;;;9.97;76.82;101110.34;5034965;28;20179;-79
2021/11/07 01:37:21;;;;;;;12.40;5.10;;;9.30;99.90;;;9.93;77.00;101099.09;5019511;28;20198;-79
2021/11/07 01:39:52;;;;;;;13.43;5.60;;;9.20;99.90;;;9.92;76.69;101083.47;5019451;28;20171;-80
2021/11/07 01:42:26;;;;;;;12.60;5.32;;;9.20;99.90;;;9.89;76.98;101073.97;5019117;28;20183;-79
2021/11/07 01:44:57;;;;;;;12.43;5.07;;;9.20;99.90;;;9.87;76.78;101065.31;5018302;28;20492;-80
2021/11/07 01:47:25;;;;;;;13.15;5.55;;;9.20;99.90;;;9.82;76.84;101051.53;5019086;28;20187;-79
2021/11/07 01:49:52;;;;;;;13.48;5.45;;;9.20;99.90;;;9.83;77.11;101058.44;5018590;28;20179;-79
2021/11/07 01:52:24;;;;;;;14.38;5.68;;;9.20;99.90;;;9.88;76.90;101051.31;5018959;28;20202;-79
2021/11/07 01:54:54;;;;;;;13.45;5.40;;;9.20;99.90;;;9.93;76.82;101052.06;5022206;28;20185;-80
2021/11/07 01:57:26;;;;;;;17.23;6.00;;;9.30;99.90;;;9.93;76.90;101044.22;5026488;28;20222;-81
2021/11/07 01:59:57;;;;;;;13.43;5.53;;;9.30;99.90;;;9.93;76.75;101043.34;4999207;28;20203;-78
2021/11/07 02:02:28;;;;;;;14.90;5.72;;;9.20;99.90;;;9.93;76.98;101044.22;4999324;28;20194;-80
2021/11/07 02:04:55;;;;;;;14.80;5.43;;;9.30;99.90;;;9.93;76.63;101033.75;5045723;28;20198;-79
2021/11/07 02:07:22;;;;;;;13.15;5.00;;;9.30;99.90;;;9.92;76.70;101028.56;5021976;28;20210;-79
2021/11/07 02:09:49;;;;;;;13.80;5.28;;;9.30;99.90;;;9.93;76.59;101020.69;5028749;28;20213;-79
2021/11/07 02:12:17;;;;;;;14.35;5.60;;;9.30;99.90;;;9.91;76.86;101016.41;5035368;28;20190;-80
2021/11/07 02:14:45;;;;;;;12.25;5.38;;;9.30;99.90;;;9.93;76.87;101020.69;5021997;28;20184;-81
2021/11/07 02:17:15;;;;;;;12.48;5.13;;;9.30;99.90;;;9.96;76.87;101006.69;5038401;28;20190;-79
2021/11/07 02:19:44;;;;;;;12.45;5.00;;;9.30;99.90;;;9.97;76.81;101014.47;5037740;28;20201;-79
2021/11/07 02:22:14;;;;;;;13.02;5.00;;;9.40;99.90;;;9.97;76.88;101000.53;5032320;28;20175;-80
2021/11/07 02:24:41;;;;;;;12.68;4.57;;;9.40;99.90;;;9.98;76.80;100995.25;5028590;28;20190;-79
2021/11/07 02:27:09;;;;;;;16.92;5.43;;;9.40;99.90;;;9.99;76.59;100986.53;5054019;28;20193;-79
2021/11/07 02:29:39;;;;;;;12.52;5.57;;;9.40;99.90;;;10.03;76.73;100982.03;5037549;28;20174;-79
2021/11/07 02:32:07;;;;;;;12.43;5.50;;;9.40;99.90;;;10.01;76.72;100968.19;5037272;28;20174;-78
2021/11/07 02:34:35;;;;;;;11.73;4.97;;;9.40;99.90;;;9.98;76.74;100957.78;5037765;28;20186;-79
2021/11/07 02:37:02;;;;;;;14.07;4.82;;;9.40;99.90;;;9.94;76.81;100966.66;5036268;28;20210;-79
2021/11/07 02:39:31;;;;;;;14.02;4.97;;;9.30;99.90;;;9.94;76.94;100964.91;5053199;28;20201;-79
2021/11/07 02:41:58;;;;;;;12.00;4.75;;;9.30;99.90;;;9.94;76.88;100946.59;5048206;28;20495;-78
2021/11/07 02:44:31;;;;;;;11.45;4.38;;;9.30;99.90;;;9.93;77.06;100941.41;5031436;28;20194;-79
2021/11/07 02:46:58;;;;;;;11.27;4.18;;;9.30;99.90;;;9.92;76.95;100932.72;5027423;28;20218;-79
2021/11/07 02:49:26;;;;;;;11.38;4.63;;;9.30;99.90;;;9.96;76.90;100936.09;5029594;28;20186;-79
2021/11/07 02:51:57;;;;;;;12.13;4.95;;;9.30;99.90;;;9.95;77.09;100916.94;5023572;28;20186;-78
2021/11/07 02:54:25;;;;;;;11.15;4.50;;;9.30;99.90;;;9.95;76.91;100921.28;5015363;28;20225;-79
2021/11/07 02:56:56;;;;;;;12.75;4.53;;;9.40;99.90;;;9.97;76.99;100922.13;5021970;28;20217;-79
2021/11/07 02:59:29;;;;;;;11.02;4.30;;;9.40;99.90;;;9.96;76.96;100926.47;5046986;28;20225;-78
2021/11/07 03:01:58;;;;;;;13.75;4.85;;;9.40;99.90;;;9.95;76.77;100916.94;5031780;28;20221;-79
2021/11/07 03:04:27;;;;;;;14.95;5.05;;;9.40;99.90;;;9.98;77.09;100905.50;5029012;28;20553;-79
2021/11/07 03:06:55;;;;;;;14.45;5.15;;;9.40;99.90;;;10.00;77.11;100899.34;5028909;28;20225;-79
2021/11/07 03:09:27;;;;;;;11.90;4.50;;;9.40;99.90;;;10.02;77.09;100897.53;5027273;28;20190;-78
2021/11/07 03:11:57;;;;;;;12.65;4.75;;;9.40;99.90;;;10.07;76.74;100879.94;5020972;28;20186;-81
2021/11/07 03:14:27;;;;;;;10.18;4.22;;;9.40;99.90;;;10.07;76.93;100873.84;5024148;28;20246;-78
2021/11/07 03:16:55;;;;;;;13.00;4.13;;;9.40;99.90;;;10.06;76.88;100867.75;5008473;28;20226;-79
2021/11/07 03:19:26;;;;;;;10.93;4.30;;;9.40;99.90;;;10.04;76.85;100859.13;4997875;28;20239;-79
2021/11/07 03:21:55;;;;;;;11.00;3.88;;;9.40;99.90;;;10.05;76.84;100854.75;4998029;28;20247;-80
2021/11/07 03:24:23;;;;;;;10.77;4.30;;;9.40;99.90;;;10.04;76.96;100848.69;4995720;28;20191;-79
2021/11/07 03:26:50;;;;;;;10.50;4.25;;;9.40;99.90;;;10.04;77.01;100847.81;4991291;28;20303;-79
2021/11/07 03:29:21;;;;;;;10.70;4.28;;;9.40;99.90;;;10.10;76.64;100837.19;4997208;28;20194;-78
2021/11/07 03:31:51;;;;;;;10.93;3.75;;;9.40;99.90;;;10.09;76.47;100830.25;5016114;28;20234;-79
2021/11/07 03:34:27;;;;;;;9.90;3.60;;;9.40;99.90;;;10.09;76.90;100831.13;5001817;28;20176;-78
2021/11/07 03:36:56;;;;;;;11.05;4.20;;;9.40;99.90;;;10.09;77.10;100836.34;4999780;28;20210;-78
2021/11/07 03:39:26;;;;;;;10.52;3.63;;;9.50;99.90;;;10.07;76.75;100838.13;5003392;28;20614;-78
2021/11/07 03:41:54;;;;;;;12.15;4.57;;;9.40;99.90;;;10.07;76.83;100845.97;5000287;28;20241;-78
2021/11/07 03:44:24;;;;;;;10.60;3.85;;;9.40;99.90;;;10.09;77.11;100836.34;5021391;28;20199;-78
2021/11/07 03:46:57;;;;;;;12.75;4.47;;;9.40;99.90;;;10.13;76.91;100831.00;5018315;28;20216;-78
2021/11/07 03:49:25;;;;;;;9.45;3.67;;;9.50;99.90;;;10.11;77.41;100826.66;4980878;28;20660;-78
2021/11/07 03:51:52;;;;;;;11.02;3.78;;;9.40;99.90;;;10.09;77.54;100820.66;4998272;28;20203;-78
2021/11/07 03:54:22;;;;;;;10.70;4.00;;;9.40;99.90;;;10.05;77.89;100803.31;5015932;28;20598;-78
2021/11/07 03:56:49;;;;;;;9.93;3.60;;;9.30;99.90;;;10.00;78.30;100784.31;4985757;28;20341;-78
2021/11/07 03:59:16;;;;;;;9.07;4.00;;;9.20;99.90;;;9.95;78.71;100793.22;5024090;28;20201;-78
2021/11/07 04:01:44;;;;;;;10.70;4.30;;;9.20;99.90;;;9.94;79.30;100788.91;5015327;28;20194;-80
2021/11/07 04:04:11;;;;;;;10.15;3.78;;;9.10;99.90;;;9.92;79.50;100781.13;5028399;28;20302;-80
2021/11/07 04:06:38;;;;;;;11.60;4.22;;;9.10;99.90;;;9.92;79.72;100785.47;5054906;28;20206;-79
2021/11/07 04:09:08;;;;;;;13.23;4.65;;;9.00;99.90;;;9.89;80.09;100769.91;5056479;28;20178;-79
2021/11/07 04:11:36;;;;;;;11.00;4.18;;;9.00;99.90;;;9.85;80.72;100774.38;5040441;28;20197;-80
2021/11/07 04:14:03;;;;;;;12.57;4.35;;;8.90;99.90;;;9.81;80.79;100777.16;5051807;28;20185;-80
2021/11/07 04:16:31;;;;;;;14.13;4.10;;;8.90;99.90;;;9.79;81.17;100769.38;5020414;28;20245;-77
2021/11/07 04:18:59;;;;;;;9.90;4.10;;;8.80;99.90;;;9.82;81.53;100758.81;5002911;28;20198;-78
2021/11/07 04:21:26;;;;;;;11.38;4.68;;;8.80;99.90;;;9.84;81.61;100746.56;5015249;28;20241;-78
2021/11/07 04:23:53;;;;;;;10.95;4.00;;;8.80;99.90;;;9.84;81.36;100745.69;5014973;28;20186;-77
2021/11/07 04:26:21;;;;;;;10.23;3.85;;;8.80;99.90;;;9.84;81.45;100748.31;5019187;28;20234;-76
2021/11/07 04:28:48;;;;;;;10.43;3.92;;;8.80;99.90;;;9.85;81.25;100753.47;5015801;28;20187;-76
2021/11/07 04:31:15;;;;;;;14.60;4.20;;;8.80;99.90;;;9.85;81.03;100743.03;5018559;28;20179;-80
2021/11/07 04:33:42;;;;;;;11.70;3.90;;;8.80;99.90;;;9.88;81.23;100734.22;5018259;28;20335;-79
2021/11/07 04:36:11;;;;;;;13.75;3.80;;;8.80;99.90;;;9.88;81.24;100735.06;5017695;28;20223;-79
2021/11/07 04:38:39;;;;;;;10.13;4.15;;;8.90;99.90;;;9.91;81.08;100734.97;5005246;28;20663;-77
2021/11/07 04:41:07;;;;;;;16.38;4.28;;;8.90;99.90;;;9.95;81.24;100733.09;5013775;28;20265;-79
2021/11/07 04:43:35;;;;;;;9.77;3.90;;;8.90;99.90;;;9.98;81.00;100746.91;5020478;28;20179;-81
2021/11/07 04:46:02;;;;;;;10.82;3.85;;;9.00;99.90;;;9.99;81.35;100746.03;5035652;28;20223;-80
2021/11/07 04:48:29;;;;;;;11.30;3.88;;;9.00;99.90;;;9.99;81.42;100727.72;5020132;28;20203;-77
2021/11/07 04:50:56;;;;;;;10.50;3.80;;;9.00;99.90;;;9.93;81.32;100727.94;5040857;28;20182;-76
2021/11/07 04:53:24;;;;;;;12.35;4.10;;;9.00;99.90;;;9.86;81.72;100726.41;5039186;28;20182;-76
2021/11/07 04:55:51;;;;;;;10.77;3.83;;;8.90;99.90;;;9.86;82.04;100718.59;5025423;28;20209;-78
2021/11/07 04:58:19;;;;;;;12.65;4.05;;;8.90;99.90;;;9.87;82.03;100707.25;5012882;28;20198;-78
2021/11/07 05:00:46;;;;;;;11.55;3.58;;;9.00;99.90;;;9.88;81.95;100706.31;4995596;28;20191;-78
2021/11/07 05:03:13;;;;;;;9.23;3.33;;;9.00;99.90;;;9.92;82.22;100702.72;5010501;28;20187;-78
2021/11/07 05:05:40;;;;;;;10.38;3.30;;;9.00;99.90;;;9.95;81.82;100694.75;4995904;28;20225;-78
2021/11/07 05:08:07;;;;;;;9.25;3.58;;;9.10;99.90;;;9.95;81.65;100702.59;4994642;28;20191;-78
2021/11/07 05:10:36;;;;;;;10.80;3.90;;;9.10;99.90;;;9.98;81.75;100692.03;4995785;28;20245;-79
2021/11/07 05:13:03;;;;;;;9.50;3.28;;;9.10;99.90;;;9.98;81.51;100692.03;5010722;28;20242;-78
2021/11/07 05:15:31;;;;;;;9.38;3.10;;;9.10;99.90;;;10.00;81.36;100684.13;5011072;28;20301;-79
2021/11/07 05:17:58;;;;;;;10.05;3.63;;;9.20;99.90;;;10.00;81.16;100679.75;4994070;28;20191;-79
2021/11/07 05:20:25;;;;;;;9.68;3.65;;;9.20;99.90;;;10.02;81.08;100675.34;4998681;28;20283;-78
2021/11/07 05:22:52;;;;;;;9.43;3.45;;;9.30;99.90;;;10.06;80.97;100687.38;5014950;28;20198;-78
2021/11/07 05:25:19;;;;;;;9.20;3.50;;;9.30;99.90;;;10.09;80.70;100682.09;5015032;28;20210;-78
2021/11/07 05:27:47;;;;;;;10.20;3.47;;;9.40;99.90;;;10.11;80.43;100693.31;5021053;28;20698;-78
2021/11/07 05:30:17;;;;;;;10.10;3.40;;;9.40;99.90;;;10.13;80.30;100679.34;5009485;28;20281;-79
2021/11/07 05:32:46;;;;;;;9.30;3.35;;;9.40;99.90;;;10.17;80.36;100681.78;5015030;28;20186;-79
2021/11/07 05:35:18;;;;;;;9.25;3.40;;;9.50;99.90;;;10.18;80.13;100670.41;5005642;28;20194;-78
2021/11/07 05:37:44;;;;;;;9.10;3.30;;;9.50;99.90;;;10.20;79.76;100665.16;5014100;28;20245;-79
2021/11/07 05:40:12;;;;;;;10.15;3.13;;;9.50;99.90;;;10.25;79.76;100658.00;5006135;28;20202;-78
2021/11/07 05:42:39;;;;;;;10.00;2.72;;;9.50;99.90;;;10.26;79.68;100659.69;5028491;28;20241;-78
2021/11/07 05:45:08;;;;;;;9.20;3.35;;;9.60;99.90;;;10.26;79.45;100660.53;5005606;28;20223;-79
2021/11/07 05:47:35;;;;;;;12.30;3.33;;;9.60;99.90;;;10.26;79.51;100655.31;5006529;28;20219;-78
2021/11/07 05:50:01;;;;;;;8.95;2.88;;;9.60;99.90;;;10.31;79.49;100662.97;5014007;28;20202;-78
2021/11/07 05:52:29;;;;;;;10.02;3.08;;;9.60;99.90;;;10.33;79.38;100669.00;5014753;28;20190;-78
2021/11/07 05:54:56;;;;;;;9.95;3.35;;;9.60;99.90;;;10.34;79.01;100657.63;5013140;28;20217;-78
2021/11/07 05:57:23;;;;;;;8.85;3.03;;;9.70;99.90;;;10.31;79.11;100652.53;5013011;28;20221;-78
2021/11/07 05:59:50;;;;;;;9.00;3.10;;;9.70;99.90;;;10.29;79.26;100654.34;5029619;28;20593;-78
2021/11/07 06:02:19;;;;;;;14.30;3.30;;;9.60;99.90;;;10.30;78.98;100656.06;5013351;28;20193;-78
2021/11/07 06:04:47;;;;;;;7.60;2.75;;;9.70;99.90;;;10.28;79.18;100648.28;5029656;28;20196;-79
2021/11/07 06:07:14;;;;;;;9.90;3.63;;;9.70;99.90;;;10.28;79.38;100652.63;5014147;28;20580;-79
2021/11/07 06:09:41;;;;;;;8.75;3.20;;;9.70;99.90;;;10.29;79.37;100638.63;5028328;28;20228;-79
2021/11/07 06:12:10;;;;;;;8.25;3.13;;;9.70;99.90;;;10.33;79.51;100642.84;5028643;28;20186;-78
2021/11/07 06:14:37;;;;;;;8.85;3.38;;;9.70;99.90;;;10.36;79.46;100645.34;5019532;28;20253;-79
2021/11/07 06:17:04;;;;;;;8.43;3.03;;;9.70;99.90;;;10.39;79.63;100634.75;5004968;28;20225;-79
2021/11/07 06:19:32;;;;;;;9.00;3.45;;;9.80;99.90;;;10.40;79.32;100636.50;5028442;28;20201;-79
2021/11/07 06:21:59;;;;;;;11.35;3.35;;;9.80;99.90;;;10.41;79.21;100646.91;5009428;28;20193;-78
2021/11/07 06:24:27;;;;;;;9.90;3.10;;;9.80;99.90;;;10.40;79.03;100642.56;5011766;28;20574;-78
2021/11/07 06:26:58;;;;;;;9.70;3.20;;;9.80;99.90;;;10.40;79.43;100636.50;5011859;28;20222;-78
2021/11/07 06:29:25;;;;;;;11.48;3.13;;;9.80;99.90;;;10.41;78.95;100640.78;5013113;28;20234;-79
2021/11/07 06:31:53;;;;;;;9.60;3.45;;;9.80;99.90;;;10.40;79.31;100646.94;5028021;28;20198;-79
2021/11/07 06:34:22;;;;;;;10.32;3.33;;;9.80;99.90;;;10.37;79.19;100637.44;5013174;28;20187;-78
2021/11/07 06:36:52;;;;;;;8.25;3.25;;;9.80;99.90;;;10.34;79.45;100641.94;5012439;28;20214;-78
2021/11/07 06:39:20;;;;;;;10.82;3.47;;;9.80;99.90;;;10.30;79.80;100640.38;5012752;28;20182;-78
2021/11/07 06:41:47;;;;;;;9.38;3.40;;;9.70;99.90;;;10.30;80.07;100650.81;5012699;28;20248;-77
2021/11/07 06:44:15;;;;;;;10.20;3.50;;;9.70;99.90;;;10.27;80.49;100643.06;5012668;28;20197;-78
2021/11/07 06:46:42;;;;;;;10.05;3.70;;;9.60;99.90;;;10.27;80.73;100637.84;5027575;28;20424;-78
2021/11/07 06:49:13;;;;;;;11.60;4.30;;;9.60;99.90;;;10.27;81.17;100635.22;5012596;28;20193;-79
2021/11/07 06:51:41;;;;;;;11.70;3.83;;;9.60;99.90;;;10.25;81.27;100637.06;5025206;28;20207;-79
2021/11/07 06:54:09;;;;;;;10.05;3.22;;;9.50;99.90;;;10.21;81.66;100632.84;5019494;28;20285;-78
2021/11/07 06:56:37;;;;;;;11.60;3.88;;;9.50;99.90;;;10.19;82.21;100634.66;5021629;28;20214;-79
2021/11/07 06:59:04;;;;;;;10.05;3.75;;;9.50;99.90;;;10.18;82.31;100625.13;5019353;28;20193;-80
2021/11/07 07:01:33;;;;;;;10.18;3.60;;;9.50;99.90;;;10.17;82.53;100613.81;5027744;28;20194;-78
2021/11/07 07:04:09;;;;;;;9.98;3.63;;;9.40;99.90;;;10.17;82.55;100629.50;5012449;28;20189;-78
2021/11/07 07:06:36;;;;;;;10.40;3.78;;;9.40;99.90;;;10.20;82.56;100625.94;5011035;28;20288;-78
2021/11/07 07:09:06;;;;;;;10.50;3.83;;;9.50;99.90;;;10.19;82.79;100626.81;5028715;28;20190;-78
2021/11/07 07:11:38;;;;;;;11.30;4.20;;;9.50;99.90;;;10.20;82.63;100621.53;5027992;28;20570;-78
2021/11/07 07:14:08;;;;;;;8.63;3.42;;;9.50;99.90;;;10.24;82.75;100617.03;5011962;28;20185;-78
2021/11/07 07:16:42;;;;;;;10.27;3.50;;;9.50;99.90;;;10.27;82.61;100617.78;5012369;28;20305;-78
2021/11/07 07:22:07;;;;;;;11.70;4.00;;;9.60;99.90;;;10.33;82.47;100627.16;4982657;28;20557;-78
2021/11/07 07:27:28;;;;;;;10.25;3.60;;;9.70;99.90;;;10.33;82.32;100627.16;5010629;28;20601;-78
2021/11/07 07:30:09;;;;;;;11.27;3.70;;;9.60;99.90;;;10.34;82.17;100623.63;5019089;28;20194;-79
2021/11/07 07:35:26;;;;;;;12.45;3.70;;;9.70;99.90;;;10.35;82.23;100630.59;5005801;28;20241;-79
2021/11/07 07:37:53;;;;;;;13.82;5.15;;;9.70;99.90;;;10.35;82.43;100625.34;5032937;28;20582;-78
2021/11/07 07:40:20;;;;;;;9.88;3.78;;;9.80;99.90;;;10.37;81.98;100626.13;5017654;28;20187;-79
2021/11/07 07:42:48;;;;;;;10.60;3.58;;;9.80;99.90;;;10.35;82.29;100622.72;5017453;28;20252;-78
2021/11/07 07:45:15;;;;;;;9.77;3.65;;;9.80;99.90;;;10.32;82.47;100622.81;5015619;28;20202;-79
2021/11/07 07:47:44;;;;;;;9.23;3.53;;;9.70;99.90;;;10.27;82.78;100614.31;5015720;28;20228;-78
2021/11/07 07:50:12;;;;;;;10.23;3.40;;;9.60;99.90;;;10.22;83.51;100618.84;5016268;28;20233;-78
2021/11/07 07:52:40;;;;;;;10.77;3.50;;;9.50;99.90;;;10.16;83.63;100616.47;5017109;28;20190;-79
2021/11/07 07:55:09;;;;;;;10.18;3.60;;;9.50;99.90;;;10.18;83.95;100606.81;5033088;28;20194;-79
2021/11/07 07:57:38;;;;;;;9.45;3.42;;;9.40;99.90;;;10.19;84.34;100605.91;5031780;28;20201;-79
2021/11/07 08:00:09;;;;;;;10.05;3.35;;;9.40;99.90;;;10.22;84.51;100608.41;5008794;28;20206;-78
2021/11/07 08:02:40;;;;;;;9.90;3.45;;;9.50;99.90;;;10.25;84.83;100601.28;5006196;28;20221;-78
2021/11/07 08:05:08;;;;;;;9.75;3.47;;;9.50;99.90;;;10.28;84.61;100605.56;5014436;28;20190;-79
2021/11/07 08:07:35;;;;;;;10.02;3.35;;;9.50;99.90;;;10.28;84.68;100601.19;5015218;28;20202;-77
2021/11/07 08:10:03;;;;;;;9.25;2.97;;;9.50;99.90;;;10.29;84.75;100604.63;5030596;28;20197;-78
2021/11/07 08:12:30;;;;;;;10.40;3.30;;;9.50;99.90;;;10.28;84.81;100600.34;5020904;28;20201;-78
2021/11/07 08:14:57;;;;;;;9.20;3.25;;;9.50;99.90;;;10.26;84.96;100597.78;5023221;28;20186;-77
2021/11/07 08:17:27;;;;;;;8.88;3.45;;;9.50;99.90;;;10.30;85.21;100603.75;5030060;28;20210;-78
2021/11/07 08:19:55;;;;;;;9.73;3.10;;;9.50;99.90;;;10.36;84.97;100603.50;5009746;28;20195;-78
2021/11/07 08:22:22;;;;;;;8.52;3.40;;;9.60;99.90;;;10.38;85.12;100599.94;5003223;28;20218;-79
2021/11/07 08:24:49;;;;;;;11.50;3.55;;;9.60;99.90;;;10.41;84.72;100591.97;5014968;28;20562;-78
2021/11/07 08:27:16;;;;;;;10.00;3.55;;;9.60;99.90;;;10.46;85.00;100597.00;5013880;28;20606;-78
2021/11/07 08:29:45;;;;;;;9.90;3.65;;;9.70;99.90;;;10.50;85.00;100588.13;5031141;28;20256;-78
2021/11/07 08:32:12;;;;;;;8.63;2.92;;;9.80;99.90;;;10.55;84.78;100586.19;5015085;28;20200;-78
2021/11/07 08:34:40;;;;;;;8.88;3.08;;;9.90;99.90;;;10.60;84.64;100592.09;5023481;28;20195;-78
2021/11/07 08:37:08;;;;;;;9.60;3.00;;;10.00;99.90;;;10.64;84.58;100589.28;5007756;28;20699;-78
2021/11/07 08:39:39;;;;;;;9.50;2.75;;;10.00;99.90;;;10.65;84.61;100584.91;5014511;28;20198;-78
2021/11/07 08:42:13;;;;;;;8.02;2.83;;;10.10;99.90;;;10.67;84.31;100583.91;5013697;28;20187;-77
2021/11/07 09:01:37;;;;;;;9.45;2.67;;;10.30;99.90;;;10.84;83.36;100580.63;5013411;28;20252;-78
2021/11/07 09:04:19;;;;;;;8.70;2.67;;;10.30;99.90;;;10.90;83.34;100569.91;5014718;28;20244;-78
2021/11/07 09:07:11;;;;;;;9.38;2.60;;;10.40;99.90;;;10.95;83.01;100568.78;5014975;28;20709;-78
2021/11/07 09:09:40;;;;;;;7.57;2.50;;;10.40;99.90;;;11.00;82.91;100555.53;5015293;28;20265;-78
2021/11/07 09:12:09;;;;;;;8.73;2.60;;;10.50;99.90;;;11.04;82.92;100554.47;5029968;28;20194;-78
2021/11/07 09:14:40;;;;;;;8.60;2.65;;;10.60;99.90;;;11.04;82.65;100550.09;5015738;28;20186;-79
2021/11/07 09:17:11;;;;;;;8.07;2.33;;;10.60;99.90;;;11.02;82.26;100546.69;5006535;28;20298;-78
2021/11/07 09:19:40;;;;;;;7.57;2.35;;;10.50;99.90;;;11.02;82.38;100532.72;5014212;28;20182;-78
2021/11/07 09:22:15;;;;;;;7.45;2.15;;;10.60;99.90;;;11.04;82.24;100530.91;5017913;28;20182;-78
2021/11/07 09:24:46;;;;;;;7.07;2.15;;;10.60;99.90;;;11.04;82.14;100534.38;5009103;28;20202;-77
2021/11/07 09:27:19;;;;;;;6.93;2.22;;;10.60;99.90;;;11.06;82.10;100532.56;5009827;28;20206;-79
2021/11/07 09:29:52;;;;;;;7.70;2.63;;;10.60;99.90;;;11.12;82.05;100539.28;5026977;28;20282;-78
2021/11/07 09:32:37;;;;;;;6.85;2.38;;;10.60;99.90;;;11.20;81.79;100542.44;5012372;28;20204;-78
2021/11/07 09:35:25;;;;;;;9.65;2.30;;;10.70;99.90;;;11.27;81.66;100533.38;5012337;28;20227;-79
2021/11/07 09:37:56;;;;;;;6.30;2.00;;;10.80;99.90;;;11.32;81.52;100534.88;4999972;28;20678;-78
2021/11/07 09:40:26;;;;;;;8.10;1.92;;;10.90;99.90;;;11.36;81.44;100528.59;5011032;28;20561;-78
2021/11/07 09:43:09;;;;;;;7.32;2.22;;;10.90;99.90;;;11.37;81.21;100529.44;4998975;28;20204;-79
2021/11/07 09:45:47;;;;;;;4.90;1.83;;;11.00;99.90;;;11.38;81.15;100532.03;5016236;28;20293;-78
2021/11/07 09:48:17;;;;;;;7.88;2.25;;;11.00;99.90;;;11.43;81.08;100538.81;5030019;28;20349;-78
2021/11/07 09:50:46;;;;;;;7.80;2.10;;;11.00;99.90;;;11.43;80.83;100526.56;5009423;28;21582;-78
2021/11/07 09:53:14;;;;;;;8.35;2.35;;;11.00;99.90;;;11.43;80.56;100536.19;5009541;28;20695;-78
2021/11/07 09:55:44;;;;;;;6.82;1.98;;;11.00;99.90;;;11.49;80.74;100533.31;5015627;28;20559;-78
2021/11/07 09:58:12;;;;;;;5.97;1.70;;;11.10;99.90;;;11.54;80.79;100528.72;5029243;28;20201;-78
2021/11/07 10:00:44;;;;;;;9.15;2.28;;;11.20;99.90;;;11.55;80.36;100533.88;5010228;28;20655;-78
2021/11/07 10:03:15;;;;;;;9.05;1.92;;;11.20;99.90;;;11.54;80.39;100537.41;4994683;28;20199;-79
2021/11/07 10:05:47;;;;;;;7.07;1.90;;;11.20;99.90;;;11.53;80.51;100524.38;4990899;28;20218;-79
2021/11/07 10:08:17;;;;;;;6.30;1.80;;;11.20;99.90;;;11.52;80.60;100528.75;5008178;28;20647;-78
2021/11/07 10:10:54;;;;;;;7.32;2.05;;;11.20;99.90;;;11.53;80.20;100520.00;5013650;28;20186;-78
2021/11/07 10:13:23;;;;;;;5.75;1.70;;;11.10;99.90;;;11.57;80.03;100521.53;5028612;28;20185;-79
2021/11/07 10:16:01;;;;;;;8.15;2.30;;;11.20;99.90;;;11.59;79.96;100519.72;5013806;28;20271;-78
2021/11/07 10:18:37;;;;;;;8.75;1.92;;;11.20;99.90;;;11.62;79.85;100531.84;5013640;28;20824;-78
2021/11/07 10:21:16;;;;;;;6.30;1.80;;;11.20;99.90;;;11.59;80.02;100529.38;5004653;28;20741;-78
2021/11/07 10:23:47;;;;;;;6.70;1.92;;;11.20;99.90;;;11.63;79.61;100515.19;5012243;28;20638;-78
2021/11/07 10:26:19;;;;;;;6.70;1.52;;;11.20;99.90;;;11.70;79.16;100506.16;5012638;28;20218;-78
2021/11/07 10:28:51;;;;;;;9.15;1.50;;;11.30;99.90;;;11.74;78.78;100513.81;5028891;28;20222;-78
2021/11/07 10:31:25;;;;;;;7.95;1.95;;;11.40;99.90;;;11.75;78.34;100520.78;5013733;28;20221;-78
2021/11/07 10:37:14;;;;;;;9.35;1.70;;;11.40;99.90;;;11.83;77.65;100520.41;4990038;28;20230;-78
2021/11/07 10:42:54;;;;;;;8.05;1.80;;;11.50;99.90;;;11.79;77.79;100517.06;4990555;28;20195;-78
2021/11/07 10:45:26;;;;;;;8.98;1.85;;;11.40;99.90;;;11.77;77.85;100521.53;5012217;28;20292;-78
2021/11/07 10:53:25;;;;;;;7.43;1.63;;;11.30;99.90;;;11.71;77.84;100513.09;5012157;28;20197;-78
2021/11/07 10:55:57;;;;;;;8.07;1.52;;;11.30;99.90;;;11.70;77.51;100521.88;5014008;28;20206;-78
2021/11/07 10:58:31;;;;;;;6.38;1.77;;;11.20;99.90;;;11.67;77.83;100533.34;5002261;28;20205;-79
2021/11/07 11:01:02;;;;;;;7.70;2.17;;;11.20;99.90;;;11.60;78.00;100531.91;5014581;28;20193;-78
2021/11/07 11:03:29;;;;;;;8.85;2.00;;;11.00;99.90;;;11.46;78.81;100546.53;5012681;28;20197;-78
2021/11/07 11:06:04;;;;;;;7.63;1.95;;;10.90;99.90;;;11.23;80.18;100540.53;5013756;28;20550;-77